YWRC weather

Wave Rock Airport
Western Australia, Australia

Public forecast

Using degrees Celsius for public forecast. Weather courtesy of forecast.io.

METAR (pilot weather report)

Closest report is Perth International Airport, 152.3 nm (282.0 km) W. Retrieved 2019/04/24 00:30 UTC (0 seconds ago):

YPPH 240030Z 07008KT CAVOK 18/08 Q1027 NOSIG

TAF (pilot weather forecast)

Forecast is more than 12 hours old.

Closest forecast is Perth International Airport, 152.3 nm (282.0 km) W. Retrieved 2019/04/23 00:00 UTC (1 day ago):

TAF YPPH 232247Z 2400/2506 11008KT 9999 FU NSC